Time;durP1;ratioP1;P1;durP2;ratioP2;P2;SDS_P1;SDS_P2;PMS_P1;PMS_P2;Temp;Humidity;BMP_temperature;BMP_pressure;BME280_temperature;BME280_humidity;BME280_pressure;Samples;Min_cycle;Max_cycle;Signal;HPM_P1;HPM_P2
2023/10/31 00:03:02;;;;;;;15.60;9.60;;;;;;;8.85;100.00;100888.59;102414;1290;601203;-58
2023/10/31 00:05:30;;;;;;;16.20;10.10;;;;;;;8.79;100.00;100878.04;104940;1266;61610;-57
2023/10/31 00:07:58;;;;;;;14.20;9.30;;;;;;;8.76;100.00;100872.94;104851;1264;59450;-63
2023/10/31 00:10:26;;;;;;;13.80;8.60;;;;;;;8.76;100.00;100864.84;104862;1268;72794;-59
2023/10/31 00:12:53;;;;;;;14.30;9.10;;;;;;;8.74;100.00;100859.13;104675;1266;66914;-62
2023/10/31 00:15:21;;;;;;;14.20;9.30;;;;;;;8.69;100.00;100862.07;104835;1267;71419;-58
2023/10/31 00:17:49;;;;;;;14.10;9.90;;;;;;;8.64;100.00;100859.35;104766;1267;182718;-65
2023/10/31 00:20:17;;;;;;;13.20;9.00;;;;;;;8.60;100.00;100859.02;104856;1267;59448;-59
2023/10/31 00:22:44;;;;;;;14.30;10.30;;;;;;;8.57;100.00;100857.41;104748;1263;72251;-60
2023/10/31 00:25:12;;;;;;;14.00;9.50;;;;;;;8.54;100.00;100858.56;105031;1265;66784;-59
2023/10/31 00:27:40;;;;;;;14.70;9.50;;;;;;;8.49;100.00;100864.29;105051;1267;71433;-61
2023/10/31 00:30:08;;;;;;;14.70;9.10;;;;;;;8.47;100.00;100869.98;105225;1263;60943;-60
2023/10/31 00:32:35;;;;;;;12.80;9.30;;;;;;;8.43;100.00;100865.20;104966;1264;59658;-60
2023/10/31 00:35:04;;;;;;;15.50;10.30;;;;;;;8.38;100.00;100862.28;105035;1263;73047;-59
2023/10/31 00:37:32;;;;;;;17.70;9.80;;;;;;;8.35;100.00;100870.55;105157;1262;65541;-57
2023/10/31 00:39:59;;;;;;;13.00;8.70;;;;;;;8.29;100.00;100871.44;104859;1263;72829;-61
2023/10/31 00:42:27;;;;;;;12.20;8.40;;;;;;;8.24;100.00;100874.20;104717;1263;60452;-59
2023/10/31 00:44:55;;;;;;;18.90;9.50;;;;;;;8.20;100.00;100872.20;105173;1262;59539;-57
2023/10/31 00:47:22;;;;;;;13.90;9.50;;;;;;;8.16;100.00;100871.77;105068;1261;71758;-60
2023/10/31 00:49:52;;;;;;;12.90;9.10;;;;;;;8.13;100.00;100870.97;105364;1255;66431;-58
2023/10/31 01:00:01;;;;;;;18.50;9.10;;;;;;;8.04;100.00;100879.35;102434;1292;599907;-60
2023/10/31 01:02:28;;;;;;;13.70;9.00;;;;;;;7.97;100.00;100873.00;104805;1270;60070;-63
2023/10/31 01:04:56;;;;;;;13.00;9.10;;;;;;;7.96;100.00;100874.02;104844;1266;60127;-60
2023/10/31 01:07:24;;;;;;;16.70;9.90;;;;;;;7.93;100.00;100875.15;104672;1271;72273;-59
2023/10/31 01:09:52;;;;;;;13.90;8.60;;;;;;;7.90;100.00;100874.41;104883;1270;65776;-60
2023/10/31 01:12:21;;;;;;;13.10;8.60;;;;;;;7.86;100.00;100870.58;104702;1270;71892;-59
2023/10/31 01:14:48;;;;;;;11.40;8.40;;;;;;;7.80;100.00;100872.16;104774;1268;187450;-60
2023/10/31 01:17:16;;;;;;;12.30;9.10;;;;;;;7.74;100.00;100874.44;105317;1257;60423;-59
2023/10/31 01:19:44;;;;;;;14.40;9.70;;;;;;;7.70;100.00;100871.58;105039;1257;71658;-64
2023/10/31 01:22:11;;;;;;;13.00;9.60;;;;;;;7.66;100.00;100872.46;105047;1261;68156;-60
2023/10/31 01:24:39;;;;;;;12.40;8.70;;;;;;;7.63;100.00;100869.61;105212;1258;71429;-59
2023/10/31 01:27:07;;;;;;;13.90;9.10;;;;;;;7.63;100.00;100866.72;105180;1262;61471;-58
2023/10/31 01:29:35;;;;;;;11.70;9.10;;;;;;;7.61;100.00;100871.02;105297;1257;60037;-69
2023/10/31 01:32:04;;;;;;;12.60;9.00;;;;;;;7.61;100.00;100873.80;105337;1262;73527;-57
2023/10/31 01:34:43;;;;;;;15.90;9.00;;;;;;;7.64;100.00;100873.40;105091;1262;66520;-61
2023/10/31 01:44:48;;;;;;;16.40;9.70;;;;;;;7.64;100.00;100874.29;102510;1292;600990;-60
2023/10/31 01:47:15;;;;;;;10.70;8.60;;;;;;;7.64;100.00;100873.41;105093;1266;59293;-61
2023/10/31 01:49:43;;;;;;;14.50;9.10;;;;;;;7.64;100.00;100874.19;104590;1266;60172;-61
2023/10/31 01:52:11;;;;;;;15.60;8.90;;;;;;;7.63;100.00;100871.59;104927;1270;72256;-60
2023/10/31 01:54:39;;;;;;;12.70;8.70;;;;;;;7.64;100.00;100872.85;104918;1265;65620;-56
2023/10/31 01:57:07;;;;;;;16.70;8.60;;;;;;;7.65;100.00;100873.94;104798;1267;72647;-59
2023/10/31 01:59:35;;;;;;;11.50;7.80;;;;;;;7.65;100.00;100871.02;104828;1270;195268;-65
2023/10/31 02:02:03;;;;;;;14.40;8.70;;;;;;;7.66;100.00;100867.85;104799;1265;59225;-56
2023/10/31 02:04:31;;;;;;;12.60;9.00;;;;;;;7.65;100.00;100879.27;105031;1270;72292;-56
2023/10/31 02:06:58;;;;;;;14.00;9.00;;;;;;;7.64;100.00;100883.55;105079;1264;67204;-56
2023/10/31 02:09:28;;;;;;;17.10;8.20;;;;;;;7.63;100.00;100881.27;105369;1260;72729;-57
2023/10/31 02:11:56;;;;;;;14.50;8.80;;;;;;;7.58;100.00;100886.20;105009;1261;61818;-57
2023/10/31 02:14:24;;;;;;;14.50;8.30;;;;;;;7.53;100.00;100887.16;105940;1256;60094;-56
2023/10/31 02:16:52;;;;;;;16.30;9.20;;;;;;;7.50;100.00;100882.44;105505;1253;73048;-56
2023/10/31 02:19:20;;;;;;;11.60;8.60;;;;;;;7.50;100.00;100882.84;105347;1253;66980;-56
2023/10/31 02:21:48;;;;;;;11.70;8.40;;;;;;;7.48;100.00;100885.23;105577;1256;71024;-56
2023/10/31 02:24:17;;;;;;;13.20;8.90;;;;;;;7.48;100.00;100886.43;105516;1259;60378;-56
2023/10/31 02:26:44;;;;;;;13.00;8.40;;;;;;;7.49;100.00;100888.66;105472;1258;59614;-56
2023/10/31 02:29:12;;;;;;;10.30;8.30;;;;;;;7.49;100.00;100881.48;105466;1253;72222;-57
2023/10/31 02:31:40;;;;;;;14.30;8.70;;;;;;;7.51;100.00;100881.85;105481;1253;65498;-57
2023/10/31 02:34:08;;;;;;;12.60;9.50;;;;;;;7.50;100.00;100874.83;105499;1259;72671;-56
2023/10/31 02:36:35;;;;;;;13.00;8.90;;;;;;;7.51;100.00;100871.52;105387;1259;59734;-57
2023/10/31 02:39:03;;;;;;;14.70;9.10;;;;;;;7.51;100.00;100872.84;105609;1256;60021;-56
2023/10/31 02:41:31;;;;;;;12.80;8.90;;;;;;;7.53;100.00;100867.64;105853;1253;73122;-63
2023/10/31 02:43:59;;;;;;;13.30;8.20;;;;;;;7.53;100.00;100865.53;105679;1259;66894;-56
2023/10/31 02:46:26;;;;;;;13.80;8.50;;;;;;;7.51;100.00;100865.11;105543;1256;72701;-57
2023/10/31 02:48:55;;;;;;;13.60;8.60;;;;;;;7.49;100.00;100867.90;105701;1256;60328;-56
2023/10/31 02:51:22;;;;;;;13.60;8.50;;;;;;;7.50;100.00;100872.73;105787;1251;60100;-56
2023/10/31 02:53:50;;;;;;;13.20;8.80;;;;;;;7.52;100.00;100873.17;105806;1256;73132;-58
2023/10/31 02:56:19;;;;;;;13.80;8.10;;;;;;;7.52;100.00;100872.55;105747;1254;66950;-57
2023/10/31 02:58:46;;;;;;;13.00;8.60;;;;;;;7.51;100.00;100876.48;105563;1258;71533;-57
2023/10/31 03:01:14;;;;;;;13.50;9.30;;;;;;;7.50;100.00;100869.67;105734;1253;61156;-56
2023/10/31 03:03:42;;;;;;;11.00;8.10;;;;;;;7.50;100.00;100868.29;106035;1257;59790;-61
2023/10/31 03:06:10;;;;;;;14.40;8.50;;;;;;;7.52;100.00;100865.65;105532;1256;73720;-56
2023/10/31 03:08:38;;;;;;;12.30;8.40;;;;;;;7.59;100.00;100867.27;105771;1256;65696;-59
2023/10/31 03:11:07;;;;;;;12.10;8.70;;;;;;;7.69;100.00;100862.11;105787;1253;71300;-56
2023/10/31 03:13:35;;;;;;;13.00;9.80;;;;;;;7.76;100.00;100864.02;105655;1253;60755;-58
2023/10/31 03:16:03;;;;;;;15.20;9.80;;;;;;;7.82;100.00;100864.29;105822;1250;60158;-63
2023/10/31 03:18:30;;;;;;;13.00;8.60;;;;;;;7.89;100.00;100861.42;105455;1255;73040;-56
2023/10/31 03:20:58;;;;;;;10.90;8.20;;;;;;;7.94;100.00;100858.83;105813;1252;65697;-58
2023/10/31 03:23:27;;;;;;;15.20;8.80;;;;;;;7.96;100.00;100860.84;105787;1252;73299;-57
2023/10/31 03:25:55;;;;;;;15.70;9.60;;;;;;;7.97;100.00;100857.10;105998;1256;59751;-59
2023/10/31 03:28:24;;;;;;;16.30;9.20;;;;;;;7.97;100.00;100857.63;105682;1259;59669;-56
2023/10/31 03:30:51;;;;;;;15.50;10.10;;;;;;;7.97;100.00;100862.52;105757;1251;73170;-57
2023/10/31 03:33:19;;;;;;;15.20;9.90;;;;;;;7.93;100.00;100863.89;105744;1251;66945;-56
2023/10/31 03:35:47;;;;;;;14.00;10.30;;;;;;;7.89;100.00;100862.05;105771;1256;72735;-56
2023/10/31 03:38:15;;;;;;;16.10;10.60;;;;;;;7.86;100.00;100860.63;109418;1250;61733;-57
2023/10/31 03:40:43;;;;;;;15.80;9.70;;;;;;;7.85;100.00;100864.77;109505;1250;60022;-57
2023/10/31 03:43:12;;;;;;;13.50;9.80;;;;;;;7.82;100.00;100865.36;109447;1253;71845;-57
2023/10/31 03:45:40;;;;;;;13.80;9.60;;;;;;;7.81;100.00;100870.52;109255;1253;66111;-59
2023/10/31 03:48:08;;;;;;;11.10;9.10;;;;;;;7.78;100.00;100865.75;109370;1253;72757;-62
2023/10/31 03:50:35;;;;;;;14.20;9.50;;;;;;;7.74;100.00;100870.61;109369;1253;61703;-58
2023/10/31 03:53:03;;;;;;;11.50;9.00;;;;;;;7.71;100.00;100873.77;109393;1251;58803;-57
2023/10/31 03:55:31;;;;;;;12.80;9.40;;;;;;;7.68;100.00;100874.32;109403;1252;73104;-57
2023/10/31 03:57:59;;;;;;;15.20;9.30;;;;;;;7.65;100.00;100877.27;109516;1251;66963;-58
2023/10/31 04:00:26;;;;;;;14.90;9.50;;;;;;;7.62;100.00;100877.25;109436;1253;73192;-57
2023/10/31 04:02:55;;;;;;;15.40;9.50;;;;;;;7.60;100.00;100883.07;109405;1251;60585;-57
2023/10/31 04:05:25;;;;;;;15.40;10.10;;;;;;;7.58;100.00;100886.55;109468;1252;60108;-57
2023/10/31 04:07:53;;;;;;;14.80;9.40;;;;;;;7.55;100.00;100888.05;109406;1253;71931;-56
2023/10/31 04:10:21;;;;;;;15.60;9.90;;;;;;;7.55;100.00;100887.18;109212;1253;66494;-56
2023/10/31 04:12:48;;;;;;;14.80;9.20;;;;;;;7.56;100.00;100890.03;109199;1253;71148;-57
2023/10/31 04:15:16;;;;;;;14.20;8.10;;;;;;;7.55;100.00;100888.05;109398;1253;60064;-56
2023/10/31 04:17:43;;;;;;;17.30;8.70;;;;;;;7.54;100.00;100887.92;109443;1251;60100;-57
2023/10/31 04:20:11;;;;;;;12.30;9.50;;;;;;;7.55;100.00;100886.30;109452;1251;73241;-61
2023/10/31 04:22:39;;;;;;;12.60;9.00;;;;;;;7.56;100.00;100886.17;109392;1252;65691;-57
2023/10/31 04:25:07;;;;;;;14.00;8.60;;;;;;;7.59;100.00;100884.91;109428;1253;72693;-55
2023/10/31 04:27:34;;;;;;;12.50;9.00;;;;;;;7.62;100.00;100885.69;109427;1251;58898;-56
2023/10/31 04:30:02;;;;;;;11.40;8.60;;;;;;;7.67;100.00;100887.59;109494;1252;60101;-56
2023/10/31 04:32:30;;;;;;;13.30;8.80;;;;;;;7.77;100.00;100886.66;109403;1256;72885;-56
2023/10/31 04:34:57;;;;;;;13.30;9.20;;;;;;;7.89;100.00;100882.64;109442;1251;66945;-56
2023/10/31 04:37:26;;;;;;;13.20;9.20;;;;;;;8.03;100.00;100887.55;109461;1253;72712;-56
2023/10/31 04:39:53;;;;;;;13.70;8.50;;;;;;;8.13;100.00;100888.70;109447;1251;61737;-56
2023/10/31 04:42:22;;;;;;;14.20;9.00;;;;;;;8.23;100.00;100888.70;109367;1252;60099;-59
2023/10/31 04:44:50;;;;;;;15.30;9.20;;;;;;;8.35;100.00;100892.50;109439;1252;73134;-56
2023/10/31 04:47:17;;;;;;;13.40;8.70;;;;;;;8.49;100.00;100895.39;109455;1251;66969;-56
2023/10/31 04:49:45;;;;;;;14.90;9.80;;;;;;;8.66;100.00;100898.32;109424;1251;72772;-58
2023/10/31 04:52:13;;;;;;;12.20;8.80;;;;;;;8.81;100.00;100904.16;109461;1252;58772;-58
2023/10/31 04:54:40;;;;;;;16.80;10.10;;;;;;;8.99;100.00;100907.24;109377;1253;59385;-58
2023/10/31 04:57:08;;;;;;;13.50;9.30;;;;;;;9.19;100.00;100912.25;109445;1252;73023;-57
2023/10/31 04:59:36;;;;;;;12.80;9.00;;;;;;;9.41;100.00;100912.02;109491;1251;66319;-57
2023/10/31 05:02:03;;;;;;;15.70;9.10;;;;;;;9.66;100.00;100916.61;109462;1251;72682;-56
2023/10/31 05:04:31;;;;;;;11.40;8.50;;;;;;;9.90;100.00;100916.45;109359;1253;60468;-63
2023/10/31 05:06:59;;;;;;;13.20;9.10;;;;;;;10.15;100.00;100917.81;109458;1253;58757;-58
2023/10/31 05:09:26;;;;;;;12.10;8.20;;;;;;;10.41;100.00;100918.20;109450;1252;71156;-59
2023/10/31 05:11:54;;;;;;;14.10;8.30;;;;;;;10.71;100.00;100919.61;109446;1253;66898;-56
2023/10/31 05:14:22;;;;;;;11.80;8.30;;;;;;;11.04;100.00;100923.11;109460;1252;72832;-58
2023/10/31 05:16:50;;;;;;;11.60;7.60;;;;;;;11.44;100.00;100921.52;109417;1253;60644;-58
2023/10/31 05:19:17;;;;;;;10.20;7.60;;;;;;;11.99;100.00;100924.45;109460;1252;58840;-59
2023/10/31 05:21:45;;;;;;;11.90;7.20;;;;;;;12.74;100.00;100929.81;109494;1252;71743;-58
2023/10/31 05:24:13;;;;;;;10.00;7.20;;;;;;;13.55;100.00;100939.27;109446;1253;66198;-58
2023/10/31 05:26:42;;;;;;;11.40;7.40;;;;;;;14.32;100.00;100939.04;109403;1253;72009;-64
2023/10/31 05:29:11;;;;;;;11.80;7.10;;;;;;;15.03;100.00;100947.64;109458;1254;60487;-59
2023/10/31 05:31:38;;;;;;;10.70;7.20;;;;;;;15.64;100.00;100950.15;109408;1253;58824;-58
2023/10/31 05:34:06;;;;;;;10.60;6.70;;;;;;;16.20;100.00;100946.83;109463;1256;73121;-60
2023/10/31 05:36:34;;;;;;;9.50;6.30;;;;;;;16.74;100.00;100945.06;109321;1252;65730;-59
2023/10/31 05:39:01;;;;;;;8.80;6.90;;;;;;;17.31;100.00;100939.75;109399;1253;71151;-59
2023/10/31 05:41:29;;;;;;;9.20;6.90;;;;;;;17.79;100.00;100926.82;109474;1252;60170;-58
2023/10/31 05:43:57;;;;;;;9.30;6.60;;;;;;;18.19;100.00;100902.92;109450;1254;60120;-59
2023/10/31 05:46:24;;;;;;;9.00;7.10;;;;;;;18.68;100.00;100869.85;109504;1253;73112;-59
2023/10/31 05:48:52;;;;;;;9.50;6.70;;;;;;;19.24;100.00;100835.15;109410;1253;66813;-64
2023/10/31 05:51:20;;;;;;;9.40;7.20;;;;;;;19.78;100.00;100797.89;109442;1253;73242;-59
2023/10/31 05:53:48;;;;;;;12.50;6.60;;;;;;;20.21;100.00;100760.98;109455;1252;58874;-59
2023/10/31 05:56:15;;;;;;;11.10;7.70;;;;;;;20.63;100.00;100735.48;109482;1251;58790;-59
2023/10/31 05:58:43;;;;;;;9.00;7.20;;;;;;;21.03;100.00;100721.00;109476;1253;72681;-59
2023/10/31 06:01:11;;;;;;;12.70;10.70;;;;;;;21.41;100.00;100706.45;109377;1253;67177;-60
2023/10/31 06:03:42;;;;;;;10.20;8.90;;;;;;;21.78;100.00;100698.45;109467;1253;72750;-60
2023/10/31 06:06:11;;;;;;;7.30;5.90;;;;;;;22.19;100.00;100702.83;109466;1253;60052;-61
2023/10/31 06:08:40;;;;;;;9.20;7.00;;;;;;;22.55;100.00;100698.73;109478;1253;60545;-57
2023/10/31 06:11:12;;;;;;;8.80;6.50;;;;;;;22.82;100.00;100698.84;109437;1253;73973;-59
2023/10/31 06:13:40;;;;;;;7.80;6.30;;;;;;;23.12;100.00;100691.27;109451;1252;66762;-57
2023/10/31 06:16:08;;;;;;;9.10;6.50;;;;;;;23.27;100.00;100694.48;109459;1253;72792;-58
2023/10/31 06:18:38;;;;;;;8.50;6.00;;;;;;;23.25;100.00;100693.52;109424;1254;58886;-58
2023/10/31 06:21:08;;;;;;;8.00;6.50;;;;;;;23.15;100.00;100695.27;109473;1252;60372;-63
2023/10/31 06:23:39;;;;;;;7.70;5.80;;;;;;;22.96;100.00;100699.06;109478;1253;73899;-59
2023/10/31 06:26:07;;;;;;;11.50;7.00;;;;;;;22.91;100.00;100706.93;109435;1253;65647;-58
2023/10/31 06:28:36;;;;;;;8.90;6.30;;;;;;;22.95;100.00;100703.95;109359;1253;71460;-58
2023/10/31 06:31:11;;;;;;;7.50;5.80;;;;;;;23.08;100.00;100704.37;109374;1253;60885;-58
2023/10/31 06:33:39;;;;;;;8.50;6.10;;;;;;;23.18;100.00;100708.89;109380;1256;60102;-58
2023/10/31 06:36:07;;;;;;;7.80;6.10;;;;;;;23.13;100.00;100715.14;109382;1253;73907;-58
2023/10/31 06:38:35;;;;;;;9.00;6.40;;;;;;;23.07;100.00;100715.86;109430;1255;66954;-58
2023/10/31 06:41:03;;;;;;;9.60;6.30;;;;;;;23.14;100.00;100715.21;109389;1253;71422;-62
2023/10/31 06:43:30;;;;;;;10.00;6.10;;;;;;;23.38;100.00;100712.86;109131;1253;58820;-59
2023/10/31 06:46:03;;;;;;;8.90;6.30;;;;;;;23.64;100.00;100713.07;109389;1256;60074;-60
2023/10/31 06:48:31;;;;;;;7.50;5.30;;;;;;;23.90;100.00;100714.75;109411;1252;74461;-58
2023/10/31 06:50:59;;;;;;;9.40;5.90;;;;;;;24.16;100.00;100717.40;109393;1252;65818;-65
2023/10/31 06:53:26;;;;;;;7.50;5.00;;;;;;;24.40;100.00;100722.96;109369;1253;71943;-60
2023/10/31 06:55:54;;;;;;;7.60;5.60;;;;;;;24.53;100.00;100725.40;109412;1257;60138;-60
2023/10/31 06:58:22;;;;;;;7.50;5.40;;;;;;;24.75;100.00;100725.31;109398;1253;60110;-60
2023/10/31 07:00:49;;;;;;;8.90;5.80;;;;;;;25.07;99.37;100721.54;109394;1253;72614;-64
2023/10/31 07:03:17;;;;;;;6.10;4.30;;;;;;;25.33;96.54;100717.95;109373;1253;66934;-60
2023/10/31 07:05:45;;;;;;;8.90;4.80;;;;;;;25.59;90.91;100717.77;109452;1255;71814;-60
2023/10/31 07:08:12;;;;;;;8.60;4.90;;;;;;;25.66;82.92;100717.05;109431;1253;60133;-58
2023/10/31 07:10:40;;;;;;;7.80;4.70;;;;;;;25.62;82.64;100721.34;109461;1251;60128;-60
2023/10/31 07:13:08;;;;;;;7.60;4.70;;;;;;;25.66;80.55;100722.30;109379;1254;73929;-60
2023/10/31 07:15:38;;;;;;;7.20;4.70;;;;;;;25.64;80.36;100722.52;109507;1251;65793;-60
2023/10/31 07:18:07;;;;;;;7.20;4.90;;;;;;;25.62;78.82;100722.09;109425;1253;72697;-59
2023/10/31 07:20:35;;;;;;;8.30;4.70;;;;;;;25.58;78.40;100721.26;109442;1251;60058;-60
2023/10/31 07:23:02;;;;;;;6.20;4.20;;;;;;;25.55;75.42;100716.51;109423;1251;60964;-58
2023/10/31 07:25:30;;;;;;;5.40;3.70;;;;;;;25.39;76.83;100718.64;109434;1254;73109;-59
2023/10/31 07:27:58;;;;;;;6.80;4.70;;;;;;;25.34;80.71;100713.78;109518;1251;65814;-57
2023/10/31 07:30:25;;;;;;;6.70;4.30;;;;;;;25.44;79.28;100719.80;109485;1251;72394;-57
2023/10/31 07:32:53;;;;;;;5.90;3.80;;;;;;;25.52;79.06;100715.82;109364;1253;60189;-60
2023/10/31 07:35:21;;;;;;;8.20;4.00;;;;;;;25.65;78.90;100714.40;109479;1251;58794;-58
2023/10/31 07:37:48;;;;;;;7.50;4.50;;;;;;;25.82;76.96;100712.70;109478;1250;73975;-57
2023/10/31 07:40:16;;;;;;;7.20;4.50;;;;;;;25.96;72.79;100701.80;109478;1254;65867;-58
2023/10/31 07:42:43;;;;;;;6.60;3.90;;;;;;;26.09;71.34;100700.08;109457;1251;71396;-65
2023/10/31 07:45:11;;;;;;;7.40;4.40;;;;;;;26.18;69.39;100700.35;109433;1256;58813;-58
2023/10/31 07:47:39;;;;;;;7.90;5.10;;;;;;;26.16;67.32;100697.25;109442;1252;60073;-58
2023/10/31 07:50:07;;;;;;;11.30;5.20;;;;;;;26.02;66.89;100697.44;109454;1252;73916;-59
2023/10/31 07:52:34;;;;;;;7.40;4.30;;;;;;;25.80;66.83;100696.04;109532;1251;65679;-60
2023/10/31 07:55:02;;;;;;;8.10;5.40;;;;;;;25.50;70.61;100697.09;109423;1257;74921;-65
2023/10/31 07:57:30;;;;;;;7.80;4.40;;;;;;;25.35;76.41;100702.25;109488;1253;62335;-59
2023/10/31 07:59:57;;;;;;;7.20;4.60;;;;;;;25.35;76.93;100704.82;109496;1252;58856;-59
2023/10/31 08:02:25;;;;;;;6.90;4.80;;;;;;;25.43;78.09;100698.18;109417;1254;76140;-58
2023/10/31 08:04:53;;;;;;;10.80;5.70;;;;;;;25.57;76.16;100697.39;109463;1252;67001;-67
2023/10/31 08:07:21;;;;;;;9.70;5.40;;;;;;;25.73;75.49;100698.30;109472;1254;72700;-58
2023/10/31 08:09:48;;;;;;;10.60;5.30;;;;;;;25.87;69.93;100692.07;109293;1252;60120;-57
2023/10/31 08:12:16;;;;;;;8.20;5.20;;;;;;;25.87;67.78;100693.56;109500;1252;60399;-57
2023/10/31 08:14:43;;;;;;;9.00;4.90;;;;;;;25.79;68.30;100698.81;109505;1252;72860;-58
2023/10/31 08:17:11;;;;;;;7.30;4.20;;;;;;;25.78;69.94;100692.52;109371;1253;66056;-58
2023/10/31 08:19:39;;;;;;;7.70;4.70;;;;;;;25.89;68.31;100691.10;109434;1252;72461;-57
2023/10/31 08:22:07;;;;;;;8.10;4.80;;;;;;;25.82;66.41;100693.00;109373;1251;58830;-58
2023/10/31 08:24:36;;;;;;;7.00;3.90;;;;;;;25.77;67.01;100690.55;109466;1251;63081;-64
2023/10/31 08:27:04;;;;;;;8.10;4.80;;;;;;;25.79;66.20;100689.09;109444;1251;74426;-57
2023/10/31 08:29:32;;;;;;;9.10;4.70;;;;;;;25.79;66.22;100692.52;109451;1251;67282;-58
2023/10/31 08:31:59;;;;;;;5.70;3.40;;;;;;;25.78;67.51;100691.34;109446;1251;75821;-57
2023/10/31 08:34:27;;;;;;;5.40;3.00;;;;;;;25.88;66.61;100684.74;109401;1251;60053;-64
2023/10/31 08:36:56;;;;;;;5.60;2.70;;;;;;;25.99;65.29;100686.49;109413;1251;60505;-58
2023/10/31 08:39:24;;;;;;;6.00;3.60;;;;;;;26.10;64.42;100684.58;109462;1251;72527;-57
2023/10/31 08:41:55;;;;;;;5.70;3.30;;;;;;;26.22;62.84;100680.66;109481;1250;68919;-57
2023/10/31 08:44:23;;;;;;;6.70;3.10;;;;;;;26.31;60.98;100675.62;109369;1253;74819;-60
2023/10/31 08:46:51;;;;;;;4.90;3.10;;;;;;;26.33;61.28;100674.05;109423;1252;58851;-60
2023/10/31 08:49:18;;;;;;;4.60;2.90;;;;;;;26.26;61.13;100676.31;109453;1251;62672;-60
2023/10/31 08:51:46;;;;;;;5.30;3.40;;;;;;;26.22;62.64;100676.45;109465;1253;73953;-60
2023/10/31 08:54:14;;;;;;;8.20;2.80;;;;;;;26.23;61.88;100672.84;109407;1251;67153;-62
2023/10/31 08:56:41;;;;;;;6.70;3.50;;;;;;;26.29;62.23;100668.11;109439;1253;75105;-59
2023/10/31 08:59:09;;;;;;;6.80;3.50;;;;;;;26.36;59.75;100661.54;109270;1253;58892;-59
2023/10/31 09:01:37;;;;;;;6.10;3.30;;;;;;;26.38;57.55;100662.37;109461;1252;60173;-59
2023/10/31 09:04:04;;;;;;;7.80;3.60;;;;;;;26.26;57.64;100656.27;109432;1251;75834;-59
2023/10/31 09:06:32;;;;;;;6.60;3.80;;;;;;;26.09;60.28;100654.88;109322;1254;68312;-61
2023/10/31 09:09:00;;;;;;;6.10;4.30;;;;;;;25.97;61.51;100644.64;109388;1251;75850;-61
2023/10/31 09:11:28;;;;;;;7.70;4.90;;;;;;;25.82;62.40;100643.59;109384;1254;60369;-59
2023/10/31 09:13:56;;;;;;;5.00;3.00;;;;;;;25.68;63.45;100638.40;109504;1253;61297;-59
2023/10/31 09:16:24;;;;;;;5.80;2.60;;;;;;;25.67;60.36;100637.07;109406;1253;75999;-62
2023/10/31 09:18:52;;;;;;;4.30;2.60;;;;;;;25.74;57.36;100636.06;109435;1251;68344;-58
2023/10/31 09:21:19;;;;;;;4.40;2.80;;;;;;;25.82;57.88;100637.55;109481;1251;74101;-60
2023/10/31 09:23:47;;;;;;;4.90;2.90;;;;;;;25.93;57.50;100632.95;109415;1254;60720;-59
2023/10/31 09:26:15;;;;;;;6.90;3.40;;;;;;;26.00;55.12;100630.84;109446;1251;62331;-63
2023/10/31 09:28:49;;;;;;;6.40;4.30;;;;;;;26.11;55.57;100634.19;109410;1251;76120;-60
2023/10/31 09:31:17;;;;;;;11.40;8.10;;;;;;;26.25;53.22;100631.30;109413;1251;70112;-59
2023/10/31 09:33:45;;;;;;;7.50;5.30;;;;;;;26.33;50.73;100629.70;109454;1253;74830;-57
2023/10/31 09:36:14;;;;;;;12.10;7.10;;;;;;;26.32;50.72;100629.16;109369;1253;60041;-59
2023/10/31 09:38:42;;;;;;;9.10;4.80;;;;;;;26.33;52.85;100631.30;109317;1253;61396;-58
2023/10/31 09:41:15;;;;;;;6.40;4.80;;;;;;;26.40;49.76;100631.68;109449;1254;73514;-58
2023/10/31 09:43:42;;;;;;;15.60;11.00;;;;;;;26.42;49.88;100627.60;109400;1252;66371;-57
2023/10/31 09:46:10;;;;;;;14.40;10.40;;;;;;;26.42;47.40;100623.86;109404;1251;72951;-58
2023/10/31 09:48:38;;;;;;;7.90;5.30;;;;;;;26.25;47.26;100624.63;109354;1252;63001;-57
2023/10/31 09:51:06;;;;;;;6.30;3.50;;;;;;;26.09;48.72;100622.07;109099;1252;61771;-57
2023/10/31 09:53:33;;;;;;;8.00;4.80;;;;;;;26.03;48.70;100617.41;109386;1253;74911;-58
2023/10/31 09:56:01;;;;;;;6.00;3.80;;;;;;;26.01;47.46;100614.48;109249;1252;65717;-57
2023/10/31 09:58:29;;;;;;;6.70;4.10;;;;;;;25.94;46.37;100614.73;109325;1254;74820;-63
2023/10/31 10:00:57;;;;;;;5.80;3.20;;;;;;;25.92;48.38;100613.73;109304;1254;62463;-58
2023/10/31 10:03:25;;;;;;;5.10;3.00;;;;;;;26.03;47.17;100615.20;109368;1253;62199;-60
2023/10/31 10:05:53;;;;;;;4.60;3.00;;;;;;;26.07;47.27;100612.83;109373;1252;76892;-60
2023/10/31 10:08:21;;;;;;;5.30;3.00;;;;;;;26.13;47.51;100616.64;109340;1251;70657;-60
2023/10/31 10:10:49;;;;;;;4.10;2.40;;;;;;;26.16;47.38;100616.46;109445;1251;74692;-59
2023/10/31 10:13:18;;;;;;;5.60;2.70;;;;;;;26.17;46.18;100615.16;109246;1251;62757;-59
2023/10/31 10:15:49;;;;;;;4.60;2.80;;;;;;;26.20;46.55;100615.80;109435;1251;60174;-59
2023/10/31 10:18:34;;;;;;;6.40;3.30;;;;;;;26.26;46.95;100611.00;109412;1251;75356;-59
2023/10/31 10:21:02;;;;;;;5.20;3.20;;;;;;;26.32;45.62;100612.27;109477;1250;69103;-60
2023/10/31 10:23:30;;;;;;;5.50;3.30;;;;;;;26.27;45.64;100609.05;109463;1251;74837;-59
2023/10/31 10:26:02;;;;;;;4.90;2.80;;;;;;;26.21;46.35;100605.73;109383;1251;61039;-60
2023/10/31 10:28:30;;;;;;;4.90;2.90;;;;;;;26.18;45.86;100600.89;109450;1251;63502;-60
2023/10/31 10:30:57;;;;;;;5.40;2.80;;;;;;;26.11;44.87;100599.92;109422;1254;73455;-59
2023/10/31 10:33:25;;;;;;;8.60;3.70;;;;;;;26.00;45.77;100597.97;109446;1253;70184;-59
2023/10/31 10:35:53;;;;;;;4.40;2.80;;;;;;;25.91;45.83;100596.59;109421;1253;75324;-59
2023/10/31 10:38:21;;;;;;;4.80;3.00;;;;;;;25.76;45.35;100600.73;109264;1253;62201;-59
2023/10/31 10:40:49;;;;;;;4.00;2.40;;;;;;;25.60;45.75;100597.41;109454;1253;62057;-57
2023/10/31 10:43:23;;;;;;;5.80;2.30;;;;;;;25.57;46.59;100597.75;109431;1254;74395;-57
2023/10/31 10:45:57;;;;;;;3.80;2.40;;;;;;;25.67;46.14;100596.48;109329;1253;67629;-66
2023/10/31 10:48:26;;;;;;;5.90;3.30;;;;;;;25.73;45.05;100593.56;109275;1253;75377;-60
2023/10/31 10:50:59;;;;;;;5.20;3.10;;;;;;;25.71;45.74;100589.36;109401;1252;63025;-60
2023/10/31 10:53:30;;;;;;;4.60;2.60;;;;;;;25.70;46.18;100590.92;109439;1253;61421;-58
2023/10/31 10:56:00;;;;;;;3.80;2.50;;;;;;;25.70;46.56;100591.33;109433;1253;74414;-59
2023/10/31 10:59:12;;;;;;;7.40;4.10;;;;;;;25.73;46.12;100588.48;109344;1254;68107;-59
2023/10/31 11:01:40;;;;;;;;;;;;;;;25.82;46.14;100590.38;109020;1257;74209;-59
2023/10/31 11:04:08;;;;;;;86.20;58.40;;;;;;;25.79;45.11;100586.40;109002;1257;58907;-59
2023/10/31 11:06:36;;;;;;;33.80;26.90;;;;;;;25.71;45.17;100588.23;109099;1253;60034;-59
2023/10/31 11:09:06;;;;;;;45.30;39.00;;;;;;;25.58;45.39;100586.21;109264;1253;76143;-59
2023/10/31 11:11:33;;;;;;;31.30;24.00;;;;;;;25.52;45.89;100586.73;109292;1254;69758;-60
2023/10/31 11:14:02;;;;;;;23.20;16.30;;;;;;;25.48;45.98;100583.98;109363;1251;74278;-61
2023/10/31 11:16:40;;;;;;;31.10;22.00;;;;;;;25.43;45.37;100584.64;109342;1253;61673;-60
2023/10/31 11:19:09;;;;;;;27.50;21.40;;;;;;;25.33;45.60;100583.61;109278;1253;61564;-60
2023/10/31 11:21:41;;;;;;;36.30;25.90;;;;;;;25.24;45.56;100581.20;109213;1251;73652;-61
2023/10/31 11:24:08;;;;;;;21.90;15.10;;;;;;;25.13;45.76;100584.91;109273;1253;69989;-59
2023/10/31 11:26:36;;;;;;;22.80;14.50;;;;;;;25.07;46.97;100583.30;109107;1252;74982;-58
2023/10/31 11:29:05;;;;;;;32.00;20.90;;;;;;;25.04;47.10;100584.48;109130;1251;62308;-58
2023/10/31 11:31:33;;;;;;;72.70;52.10;;;;;;;24.95;46.89;100582.90;109434;1251;59746;-58
2023/10/31 11:34:02;;;;;;;30.00;19.20;;;;;;;24.86;47.58;100578.61;109440;1251;74824;-60